sensor_id;sensor_type;location;lat;lon;timestamp;P1;durP1;ratioP1;P2;durP2;ratioP2
33593;SDS011;19920;52.242;20.940;2022-12-07T00:01:13;33.55;;;18.17;;
33593;SDS011;19920;52.242;20.940;2022-12-07T00:03:41;36.15;;;18.92;;
33593;SDS011;19920;52.242;20.940;2022-12-07T00:06:09;35.97;;;18.15;;
33593;SDS011;19920;52.242;20.940;2022-12-07T00:08:36;39.80;;;19.83;;
33593;SDS011;19920;52.242;20.940;2022-12-07T00:11:03;39.58;;;20.48;;
33593;SDS011;19920;52.242;20.940;2022-12-07T00:13:30;38.00;;;19.27;;
33593;SDS011;19920;52.242;20.940;2022-12-07T00:15:59;36.28;;;19.33;;
33593;SDS011;19920;52.242;20.940;2022-12-07T00:20:52;38.17;;;19.42;;
33593;SDS011;19920;52.242;20.940;2022-12-07T00:23:18;35.90;;;19.17;;
33593;SDS011;19920;52.242;20.940;2022-12-07T00:25:43;36.58;;;19.33;;
33593;SDS011;19920;52.242;20.940;2022-12-07T00:28:09;37.22;;;20.10;;
33593;SDS011;19920;52.242;20.940;2022-12-07T00:30:35;36.28;;;20.00;;
33593;SDS011;19920;52.242;20.940;2022-12-07T00:33:01;39.22;;;21.42;;
33593;SDS011;19920;52.242;20.940;2022-12-07T00:35:27;40.55;;;21.50;;
33593;SDS011;19920;52.242;20.940;2022-12-07T00:37:52;39.85;;;21.48;;
33593;SDS011;19920;52.242;20.940;2022-12-07T00:40:18;39.42;;;22.13;;
33593;SDS011;19920;52.242;20.940;2022-12-07T00:42:44;47.40;;;24.48;;
33593;SDS011;19920;52.242;20.940;2022-12-07T00:45:09;52.63;;;25.80;;
33593;SDS011;19920;52.242;20.940;2022-12-07T00:47:35;50.58;;;26.02;;
33593;SDS011;19920;52.242;20.940;2022-12-07T00:50:01;49.58;;;27.30;;
33593;SDS011;19920;52.242;20.940;2022-12-07T00:52:26;54.42;;;28.33;;
33593;SDS011;19920;52.242;20.940;2022-12-07T00:54:52;61.45;;;29.08;;
33593;SDS011;19920;52.242;20.940;2022-12-07T00:57:18;55.25;;;28.83;;
33593;SDS011;19920;52.242;20.940;2022-12-07T00:59:43;55.58;;;27.25;;
33593;SDS011;19920;52.242;20.940;2022-12-07T01:02:09;58.75;;;29.67;;
33593;SDS011;19920;52.242;20.940;2022-12-07T01:04:34;55.13;;;27.20;;
33593;SDS011;19920;52.242;20.940;2022-12-07T01:07:00;60.25;;;30.55;;
33593;SDS011;19920;52.242;20.940;2022-12-07T01:09:26;63.47;;;30.40;;
33593;SDS011;19920;52.242;20.940;2022-12-07T01:11:51;60.45;;;29.23;;
33593;SDS011;19920;52.242;20.940;2022-12-07T01:14:17;56.88;;;28.35;;
33593;SDS011;19920;52.242;20.940;2022-12-07T01:16:43;58.60;;;28.98;;
33593;SDS011;19920;52.242;20.940;2022-12-07T01:19:08;53.70;;;27.35;;
33593;SDS011;19920;52.242;20.940;2022-12-07T01:21:34;60.38;;;28.65;;
33593;SDS011;19920;52.242;20.940;2022-12-07T01:24:03;63.05;;;30.63;;
33593;SDS011;19920;52.242;20.940;2022-12-07T01:26:30;58.78;;;28.52;;
33593;SDS011;19920;52.242;20.940;2022-12-07T01:28:55;55.60;;;27.70;;
33593;SDS011;19920;52.242;20.940;2022-12-07T01:31:24;53.92;;;27.80;;
33593;SDS011;19920;52.242;20.940;2022-12-07T01:33:52;52.47;;;27.25;;
33593;SDS011;19920;52.242;20.940;2022-12-07T01:36:20;55.50;;;25.98;;
33593;SDS011;19920;52.242;20.940;2022-12-07T01:38:48;49.92;;;27.38;;
33593;SDS011;19920;52.242;20.940;2022-12-07T01:41:19;53.72;;;26.52;;
33593;SDS011;19920;52.242;20.940;2022-12-07T01:46:36;47.08;;;23.88;;
33593;SDS011;19920;52.242;20.940;2022-12-07T01:49:03;43.08;;;22.23;;
33593;SDS011;19920;52.242;20.940;2022-12-07T01:51:35;41.83;;;21.23;;
33593;SDS011;19920;52.242;20.940;2022-12-07T01:54:04;41.88;;;22.13;;
33593;SDS011;19920;52.242;20.940;2022-12-07T01:56:30;41.75;;;21.30;;
33593;SDS011;19920;52.242;20.940;2022-12-07T01:58:57;36.75;;;20.33;;
33593;SDS011;19920;52.242;20.940;2022-12-07T02:01:25;35.85;;;19.45;;
33593;SDS011;19920;52.242;20.940;2022-12-07T02:03:50;34.60;;;18.70;;
33593;SDS011;19920;52.242;20.940;2022-12-07T02:06:19;30.67;;;17.13;;
33593;SDS011;19920;52.242;20.940;2022-12-07T02:08:48;28.88;;;15.90;;
33593;SDS011;19920;52.242;20.940;2022-12-07T02:11:14;27.63;;;15.43;;
33593;SDS011;19920;52.242;20.940;2022-12-07T02:13:40;27.42;;;15.80;;
33593;SDS011;19920;52.242;20.940;2022-12-07T02:22:18;19.80;;;11.68;;
33593;SDS011;19920;52.242;20.940;2022-12-07T02:35:13;19.10;;;10.02;;
33593;SDS011;19920;52.242;20.940;2022-12-07T02:38:03;15.55;;;9.70;;
33593;SDS011;19920;52.242;20.940;2022-12-07T02:40:43;14.60;;;9.40;;
33593;SDS011;19920;52.242;20.940;2022-12-07T02:43:27;15.63;;;9.20;;
33593;SDS011;19920;52.242;20.940;2022-12-07T02:45:57;15.20;;;9.40;;
33593;SDS011;19920;52.242;20.940;2022-12-07T02:48:26;14.05;;;9.13;;
33593;SDS011;19920;52.242;20.940;2022-12-07T02:50:53;15.80;;;9.75;;
33593;SDS011;19920;52.242;20.940;2022-12-07T02:55:55;14.32;;;9.40;;
33593;SDS011;19920;52.242;20.940;2022-12-07T03:03:33;14.88;;;8.48;;
33593;SDS011;19920;52.242;20.940;2022-12-07T03:08:47;14.77;;;8.75;;
33593;SDS011;19920;52.242;20.940;2022-12-07T03:11:42;16.38;;;8.98;;
33593;SDS011;19920;52.242;20.940;2022-12-07T03:14:25;13.75;;;8.25;;
33593;SDS011;19920;52.242;20.940;2022-12-07T03:19:53;14.75;;;9.40;;
33593;SDS011;19920;52.242;20.940;2022-12-07T03:22:23;14.70;;;9.90;;
33593;SDS011;19920;52.242;20.940;2022-12-07T03:25:01;16.75;;;10.50;;
33593;SDS011;19920;52.242;20.940;2022-12-07T03:27:52;15.30;;;10.18;;
33593;SDS011;19920;52.242;20.940;2022-12-07T03:30:27;16.27;;;9.80;;
33593;SDS011;19920;52.242;20.940;2022-12-07T03:33:13;17.33;;;9.85;;
33593;SDS011;19920;52.242;20.940;2022-12-07T03:35:56;16.98;;;10.40;;
33593;SDS011;19920;52.242;20.940;2022-12-07T03:38:31;15.07;;;9.85;;
33593;SDS011;19920;52.242;20.940;2022-12-07T03:41:15;17.45;;;9.98;;
33593;SDS011;19920;52.242;20.940;2022-12-07T03:43:48;13.52;;;8.43;;
33593;SDS011;19920;52.242;20.940;2022-12-07T03:46:19;14.32;;;8.27;;
33593;SDS011;19920;52.242;20.940;2022-12-07T03:51:36;11.27;;;7.53;;
33593;SDS011;19920;52.242;20.940;2022-12-07T03:54:15;11.77;;;6.38;;
33593;SDS011;19920;52.242;20.940;2022-12-07T03:56:46;9.77;;;6.30;;
33593;SDS011;19920;52.242;20.940;2022-12-07T03:59:13;10.57;;;6.22;;
33593;SDS011;19920;52.242;20.940;2022-12-07T04:01:41;10.73;;;6.75;;
33593;SDS011;19920;52.242;20.940;2022-12-07T04:04:16;9.00;;;6.40;;
33593;SDS011;19920;52.242;20.940;2022-12-07T04:06:42;8.10;;;5.75;;
33593;SDS011;19920;52.242;20.940;2022-12-07T04:09:08;9.25;;;6.22;;
33593;SDS011;19920;52.242;20.940;2022-12-07T04:11:33;10.20;;;6.53;;
33593;SDS011;19920;52.242;20.940;2022-12-07T04:13:59;8.32;;;6.15;;
33593;SDS011;19920;52.242;20.940;2022-12-07T04:16:43;10.90;;;6.22;;
33593;SDS011;19920;52.242;20.940;2022-12-07T04:19:16;9.32;;;6.10;;
33593;SDS011;19920;52.242;20.940;2022-12-07T04:21:43;9.30;;;6.25;;
33593;SDS011;19920;52.242;20.940;2022-12-07T04:24:09;7.80;;;6.03;;
33593;SDS011;19920;52.242;20.940;2022-12-07T04:26:36;8.40;;;6.30;;
33593;SDS011;19920;52.242;20.940;2022-12-07T04:29:01;11.20;;;6.63;;
33593;SDS011;19920;52.242;20.940;2022-12-07T04:31:27;9.65;;;6.50;;
33593;SDS011;19920;52.242;20.940;2022-12-07T04:33:53;11.70;;;6.90;;
33593;SDS011;19920;52.242;20.940;2022-12-07T04:36:19;8.90;;;6.60;;
33593;SDS011;19920;52.242;20.940;2022-12-07T04:38:45;9.20;;;6.25;;
33593;SDS011;19920;52.242;20.940;2022-12-07T04:41:11;9.07;;;6.10;;
33593;SDS011;19920;52.242;20.940;2022-12-07T04:43:38;10.13;;;7.03;;
33593;SDS011;19920;52.242;20.940;2022-12-07T04:46:03;8.38;;;5.85;;
33593;SDS011;19920;52.242;20.940;2022-12-07T04:48:29;9.55;;;6.80;;
33593;SDS011;19920;52.242;20.940;2022-12-07T04:50:55;8.73;;;5.68;;
33593;SDS011;19920;52.242;20.940;2022-12-07T04:53:21;9.95;;;6.43;;
33593;SDS011;19920;52.242;20.940;2022-12-07T04:55:48;9.05;;;6.18;;
33593;SDS011;19920;52.242;20.940;2022-12-07T04:58:13;9.60;;;6.60;;
33593;SDS011;19920;52.242;20.940;2022-12-07T05:00:39;8.85;;;5.95;;
33593;SDS011;19920;52.242;20.940;2022-12-07T05:03:05;9.30;;;6.07;;
33593;SDS011;19920;52.242;20.940;2022-12-07T05:05:31;10.18;;;6.53;;
33593;SDS011;19920;52.242;20.940;2022-12-07T05:07:56;9.50;;;6.68;;
33593;SDS011;19920;52.242;20.940;2022-12-07T05:10:22;12.02;;;6.18;;
33593;SDS011;19920;52.242;20.940;2022-12-07T05:12:48;10.32;;;6.82;;
33593;SDS011;19920;52.242;20.940;2022-12-07T05:15:14;10.57;;;7.13;;
33593;SDS011;19920;52.242;20.940;2022-12-07T05:17:39;9.60;;;6.75;;
33593;SDS011;19920;52.242;20.940;2022-12-07T05:20:05;8.55;;;6.05;;
33593;SDS011;19920;52.242;20.940;2022-12-07T05:22:32;10.02;;;5.88;;
33593;SDS011;19920;52.242;20.940;2022-12-07T05:24:57;12.57;;;6.80;;
33593;SDS011;19920;52.242;20.940;2022-12-07T05:27:23;11.82;;;6.82;;
33593;SDS011;19920;52.242;20.940;2022-12-07T05:29:49;11.07;;;6.70;;
33593;SDS011;19920;52.242;20.940;2022-12-07T05:32:15;9.60;;;6.57;;
33593;SDS011;19920;52.242;20.940;2022-12-07T05:34:41;10.77;;;6.72;;
33593;SDS011;19920;52.242;20.940;2022-12-07T05:37:07;9.40;;;6.68;;
33593;SDS011;19920;52.242;20.940;2022-12-07T05:39:32;9.05;;;6.25;;
33593;SDS011;19920;52.242;20.940;2022-12-07T05:41:58;10.35;;;6.63;;
33593;SDS011;19920;52.242;20.940;2022-12-07T05:44:39;9.23;;;6.30;;
33593;SDS011;19920;52.242;20.940;2022-12-07T05:47:06;10.02;;;6.40;;
33593;SDS011;19920;52.242;20.940;2022-12-07T05:49:32;10.52;;;6.53;;
33593;SDS011;19920;52.242;20.940;2022-12-07T05:51:57;9.32;;;6.30;;
33593;SDS011;19920;52.242;20.940;2022-12-07T05:54:23;9.98;;;5.90;;
33593;SDS011;19920;52.242;20.940;2022-12-07T05:56:49;11.27;;;6.93;;
33593;SDS011;19920;52.242;20.940;2022-12-07T05:59:15;10.07;;;6.10;;
33593;SDS011;19920;52.242;20.940;2022-12-07T06:01:48;10.50;;;6.90;;
33593;SDS011;19920;52.242;20.940;2022-12-07T06:04:18;11.63;;;6.60;;
33593;SDS011;19920;52.242;20.940;2022-12-07T06:06:44;11.52;;;6.82;;
33593;SDS011;19920;52.242;20.940;2022-12-07T06:09:10;9.38;;;6.30;;
33593;SDS011;19920;52.242;20.940;2022-12-07T06:11:37;10.38;;;6.75;;
33593;SDS011;19920;52.242;20.940;2022-12-07T06:14:22;16.17;;;6.70;;
33593;SDS011;19920;52.242;20.940;2022-12-07T06:16:47;11.27;;;6.18;;
33593;SDS011;19920;52.242;20.940;2022-12-07T06:19:13;10.00;;;6.18;;
33593;SDS011;19920;52.242;20.940;2022-12-07T06:21:39;12.95;;;6.95;;
33593;SDS011;19920;52.242;20.940;2022-12-07T06:24:05;8.32;;;5.90;;
33593;SDS011;19920;52.242;20.940;2022-12-07T06:26:31;11.52;;;6.55;;
33593;SDS011;19920;52.242;20.940;2022-12-07T06:28:56;12.13;;;6.70;;
33593;SDS011;19920;52.242;20.940;2022-12-07T06:31:22;10.10;;;6.18;;
33593;SDS011;19920;52.242;20.940;2022-12-07T06:33:48;10.75;;;6.38;;
33593;SDS011;19920;52.242;20.940;2022-12-07T06:36:13;9.65;;;6.50;;
33593;SDS011;19920;52.242;20.940;2022-12-07T06:38:39;12.05;;;6.82;;
33593;SDS011;19920;52.242;20.940;2022-12-07T06:41:05;10.60;;;6.97;;
33593;SDS011;19920;52.242;20.940;2022-12-07T06:43:31;11.50;;;6.60;;
33593;SDS011;19920;52.242;20.940;2022-12-07T06:45:57;12.35;;;7.95;;
33593;SDS011;19920;52.242;20.940;2022-12-07T06:48:23;13.35;;;7.53;;
33593;SDS011;19920;52.242;20.940;2022-12-07T06:50:49;10.65;;;6.90;;
33593;SDS011;19920;52.242;20.940;2022-12-07T06:53:14;10.73;;;6.65;;
33593;SDS011;19920;52.242;20.940;2022-12-07T06:55:40;10.15;;;6.75;;
33593;SDS011;19920;52.242;20.940;2022-12-07T06:58:06;9.98;;;6.55;;
33593;SDS011;19920;52.242;20.940;2022-12-07T07:00:32;9.13;;;6.18;;
33593;SDS011;19920;52.242;20.940;2022-12-07T07:02:59;12.88;;;6.72;;
33593;SDS011;19920;52.242;20.940;2022-12-07T07:05:25;12.27;;;6.50;;
33593;SDS011;19920;52.242;20.940;2022-12-07T07:07:51;12.48;;;6.85;;
33593;SDS011;19920;52.242;20.940;2022-12-07T07:10:17;10.07;;;7.07;;
33593;SDS011;19920;52.242;20.940;2022-12-07T07:12:42;8.88;;;6.15;;
33593;SDS011;19920;52.242;20.940;2022-12-07T07:15:08;10.88;;;6.35;;
33593;SDS011;19920;52.242;20.940;2022-12-07T07:17:34;10.45;;;6.47;;
33593;SDS011;19920;52.242;20.940;2022-12-07T07:20:00;10.20;;;6.22;;
33593;SDS011;19920;52.242;20.940;2022-12-07T07:22:26;10.25;;;6.07;;
33593;SDS011;19920;52.242;20.940;2022-12-07T07:24:51;10.18;;;6.63;;
33593;SDS011;19920;52.242;20.940;2022-12-07T07:27:17;11.80;;;6.53;;
33593;SDS011;19920;52.242;20.940;2022-12-07T07:29:42;9.95;;;6.28;;
33593;SDS011;19920;52.242;20.940;2022-12-07T07:32:08;9.75;;;5.95;;
33593;SDS011;19920;52.242;20.940;2022-12-07T07:34:34;8.85;;;5.97;;
33593;SDS011;19920;52.242;20.940;2022-12-07T07:37:00;11.10;;;6.18;;
33593;SDS011;19920;52.242;20.940;2022-12-07T07:39:25;11.48;;;6.53;;
33593;SDS011;19920;52.242;20.940;2022-12-07T07:41:51;11.15;;;7.15;;
33593;SDS011;19920;52.242;20.940;2022-12-07T07:44:17;9.55;;;5.97;;
33593;SDS011;19920;52.242;20.940;2022-12-07T07:46:42;9.05;;;6.03;;
33593;SDS011;19920;52.242;20.940;2022-12-07T07:49:08;10.45;;;6.47;;
33593;SDS011;19920;52.242;20.940;2022-12-07T07:51:35;9.70;;;5.88;;
33593;SDS011;19920;52.242;20.940;2022-12-07T07:54:02;9.70;;;6.30;;
33593;SDS011;19920;52.242;20.940;2022-12-07T07:56:28;10.90;;;6.45;;
33593;SDS011;19920;52.242;20.940;2022-12-07T07:58:54;12.75;;;7.75;;
33593;SDS011;19920;52.242;20.940;2022-12-07T08:01:20;15.07;;;7.95;;
33593;SDS011;19920;52.242;20.940;2022-12-07T08:03:46;11.98;;;7.85;;
33593;SDS011;19920;52.242;20.940;2022-12-07T08:06:11;14.75;;;7.68;;
33593;SDS011;19920;52.242;20.940;2022-12-07T08:08:37;12.10;;;7.35;;
33593;SDS011;19920;52.242;20.940;2022-12-07T08:11:06;11.30;;;6.88;;
33593;SDS011;19920;52.242;20.940;2022-12-07T08:13:32;12.13;;;7.53;;
33593;SDS011;19920;52.242;20.940;2022-12-07T08:15:58;15.55;;;7.22;;
33593;SDS011;19920;52.242;20.940;2022-12-07T08:18:29;10.35;;;6.85;;
33593;SDS011;19920;52.242;20.940;2022-12-07T08:21:01;14.60;;;8.07;;
33593;SDS011;19920;52.242;20.940;2022-12-07T08:23:28;12.27;;;7.88;;
33593;SDS011;19920;52.242;20.940;2022-12-07T08:25:54;19.83;;;8.38;;
33593;SDS011;19920;52.242;20.940;2022-12-07T08:28:20;18.60;;;8.68;;
33593;SDS011;19920;52.242;20.940;2022-12-07T08:30:46;13.77;;;8.15;;
33593;SDS011;19920;52.242;20.940;2022-12-07T08:33:11;20.27;;;9.15;;
33593;SDS011;19920;52.242;20.940;2022-12-07T08:35:37;19.33;;;9.38;;
33593;SDS011;19920;52.242;20.940;2022-12-07T08:38:03;17.77;;;8.98;;
33593;SDS011;19920;52.242;20.940;2022-12-07T08:40:29;18.05;;;9.52;;
33593;SDS011;19920;52.242;20.940;2022-12-07T08:42:55;15.07;;;9.38;;
33593;SDS011;19920;52.242;20.940;2022-12-07T08:45:21;22.55;;;10.70;;
33593;SDS011;19920;52.242;20.940;2022-12-07T08:47:50;19.17;;;9.98;;
33593;SDS011;19920;52.242;20.940;2022-12-07T08:50:21;17.17;;;9.93;;
33593;SDS011;19920;52.242;20.940;2022-12-07T08:52:53;18.80;;;10.85;;
33593;SDS011;19920;52.242;20.940;2022-12-07T08:55:21;19.77;;;10.60;;
33593;SDS011;19920;52.242;20.940;2022-12-07T08:57:48;21.20;;;11.35;;
33593;SDS011;19920;52.242;20.940;2022-12-07T09:00:14;19.98;;;11.70;;
33593;SDS011;19920;52.242;20.940;2022-12-07T09:02:42;19.15;;;11.23;;
33593;SDS011;19920;52.242;20.940;2022-12-07T09:05:11;21.60;;;11.45;;
33593;SDS011;19920;52.242;20.940;2022-12-07T09:07:39;22.08;;;11.77;;
33593;SDS011;19920;52.242;20.940;2022-12-07T09:10:07;20.60;;;11.35;;
33593;SDS011;19920;52.242;20.940;2022-12-07T09:12:33;19.30;;;11.30;;
33593;SDS011;19920;52.242;20.940;2022-12-07T09:14:58;23.15;;;12.27;;
33593;SDS011;19920;52.242;20.940;2022-12-07T09:17:25;22.58;;;11.85;;
33593;SDS011;19920;52.242;20.940;2022-12-07T09:19:51;21.25;;;11.75;;
33593;SDS011;19920;52.242;20.940;2022-12-07T09:22:17;20.67;;;12.30;;
33593;SDS011;19920;52.242;20.940;2022-12-07T09:24:43;22.02;;;11.88;;
33593;SDS011;19920;52.242;20.940;2022-12-07T09:27:10;21.77;;;11.52;;
33593;SDS011;19920;52.242;20.940;2022-12-07T09:29:36;27.38;;;12.38;;
33593;SDS011;19920;52.242;20.940;2022-12-07T09:32:02;19.48;;;11.35;;
33593;SDS011;19920;52.242;20.940;2022-12-07T09:34:30;23.10;;;11.82;;
33593;SDS011;19920;52.242;20.940;2022-12-07T09:36:56;19.10;;;10.98;;
33593;SDS011;19920;52.242;20.940;2022-12-07T09:39:22;22.88;;;10.73;;
33593;SDS011;19920;52.242;20.940;2022-12-07T09:41:48;20.83;;;11.23;;
33593;SDS011;19920;52.242;20.940;2022-12-07T09:44:17;20.10;;;11.10;;
33593;SDS011;19920;52.242;20.940;2022-12-07T09:46:48;21.23;;;11.32;;
33593;SDS011;19920;52.242;20.940;2022-12-07T09:49:25;20.50;;;11.73;;
33593;SDS011;19920;52.242;20.940;2022-12-07T09:54:34;23.92;;;11.65;;
33593;SDS011;19920;52.242;20.940;2022-12-07T09:57:04;22.80;;;10.75;;
33593;SDS011;19920;52.242;20.940;2022-12-07T09:59:30;21.17;;;10.60;;
33593;SDS011;19920;52.242;20.940;2022-12-07T10:01:56;23.23;;;10.00;;
33593;SDS011;19920;52.242;20.940;2022-12-07T10:04:59;19.67;;;9.63;;
33593;SDS011;19920;52.242;20.940;2022-12-07T10:07:24;20.42;;;10.00;;
33593;SDS011;19920;52.242;20.940;2022-12-07T10:09:50;22.05;;;10.65;;
33593;SDS011;19920;52.242;20.940;2022-12-07T10:12:16;19.08;;;10.48;;
33593;SDS011;19920;52.242;20.940;2022-12-07T10:14:53;18.65;;;10.45;;
33593;SDS011;19920;52.242;20.940;2022-12-07T10:22:37;22.00;;;10.85;;
33593;SDS011;19920;52.242;20.940;2022-12-07T10:25:09;21.35;;;11.13;;
33593;SDS011;19920;52.242;20.940;2022-12-07T10:27:43;19.17;;;10.55;;
33593;SDS011;19920;52.242;20.940;2022-12-07T10:30:21;19.63;;;10.55;;
33593;SDS011;19920;52.242;20.940;2022-12-07T10:32:47;19.30;;;10.63;;
33593;SDS011;19920;52.242;20.940;2022-12-07T10:37:44;17.92;;;10.27;;
33593;SDS011;19920;52.242;20.940;2022-12-07T10:40:30;21.48;;;11.18;;
33593;SDS011;19920;52.242;20.940;2022-12-07T11:05:27;15.73;;;10.27;;
33593;SDS011;19920;52.242;20.940;2022-12-07T11:10:55;15.00;;;9.50;;
33593;SDS011;19920;52.242;20.940;2022-12-07T11:16:30;16.65;;;10.00;;
33593;SDS011;19920;52.242;20.940;2022-12-07T11:38:12;16.75;;;11.32;;
33593;SDS011;19920;52.242;20.940;2022-12-07T11:40:43;14.77;;;9.70;;
33593;SDS011;19920;52.242;20.940;2022-12-07T11:45:46;16.23;;;10.48;;
33593;SDS011;19920;52.242;20.940;2022-12-07T11:48:20;16.15;;;9.90;;
33593;SDS011;19920;52.242;20.940;2022-12-07T11:50:54;17.45;;;10.18;;
33593;SDS011;19920;52.242;20.940;2022-12-07T11:53:37;16.92;;;10.50;;
33593;SDS011;19920;52.242;20.940;2022-12-07T12:01:48;17.55;;;10.73;;
33593;SDS011;19920;52.242;20.940;2022-12-07T12:06:30;15.23;;;10.15;;
33593;SDS011;19920;52.242;20.940;2022-12-07T12:16:44;16.05;;;10.32;;
33593;SDS011;19920;52.242;20.940;2022-12-07T12:24:36;14.27;;;9.25;;
33593;SDS011;19920;52.242;20.940;2022-12-07T12:27:08;18.30;;;10.50;;
33593;SDS011;19920;52.242;20.940;2022-12-07T12:29:50;19.42;;;10.93;;
33593;SDS011;19920;52.242;20.940;2022-12-07T12:32:36;16.10;;;10.43;;
33593;SDS011;19920;52.242;20.940;2022-12-07T12:35:21;18.83;;;10.98;;
33593;SDS011;19920;52.242;20.940;2022-12-07T12:37:54;19.77;;;11.63;;
33593;SDS011;19920;52.242;20.940;2022-12-07T12:42:55;17.67;;;11.18;;
33593;SDS011;19920;52.242;20.940;2022-12-07T12:47:55;16.58;;;10.88;;
33593;SDS011;19920;52.242;20.940;2022-12-07T13:00:42;23.08;;;13.68;;
33593;SDS011;19920;52.242;20.940;2022-12-07T13:03:16;23.58;;;13.45;;
33593;SDS011;19920;52.242;20.940;2022-12-07T13:08:44;14.83;;;9.30;;
33593;SDS011;19920;52.242;20.940;2022-12-07T13:11:20;13.10;;;7.95;;
33593;SDS011;19920;52.242;20.940;2022-12-07T13:14:35;11.18;;;7.53;;
33593;SDS011;19920;52.242;20.940;2022-12-07T13:16:58;12.80;;;7.15;;
33593;SDS011;19920;52.242;20.940;2022-12-07T13:22:50;10.35;;;6.95;;
33593;SDS011;19920;52.242;20.940;2022-12-07T13:27:24;12.13;;;7.57;;
33593;SDS011;19920;52.242;20.940;2022-12-07T13:29:51;13.35;;;8.23;;
33593;SDS011;19920;52.242;20.940;2022-12-07T13:32:25;13.23;;;8.68;;
33593;SDS011;19920;52.242;20.940;2022-12-07T13:34:52;12.80;;;7.95;;
33593;SDS011;19920;52.242;20.940;2022-12-07T13:39:56;11.90;;;7.72;;
33593;SDS011;19920;52.242;20.940;2022-12-07T13:42:37;12.02;;;8.00;;
33593;SDS011;19920;52.242;20.940;2022-12-07T13:45:25;13.52;;;8.57;;
33593;SDS011;19920;52.242;20.940;2022-12-07T13:50:55;15.32;;;9.18;;
33593;SDS011;19920;52.242;20.940;2022-12-07T13:53:22;16.15;;;9.70;;
33593;SDS011;19920;52.242;20.940;2022-12-07T13:55:48;16.70;;;10.52;;
33593;SDS011;19920;52.242;20.940;2022-12-07T13:58:14;17.35;;;10.93;;
33593;SDS011;19920;52.242;20.940;2022-12-07T14:00:40;15.43;;;10.73;;
33593;SDS011;19920;52.242;20.940;2022-12-07T14:05:42;18.13;;;12.10;;
33593;SDS011;19920;52.242;20.940;2022-12-07T14:13:32;21.05;;;13.65;;
33593;SDS011;19920;52.242;20.940;2022-12-07T14:16:03;20.33;;;13.60;;
33593;SDS011;19920;52.242;20.940;2022-12-07T14:18:52;21.38;;;13.40;;
33593;SDS011;19920;52.242;20.940;2022-12-07T14:21:19;18.30;;;13.05;;
33593;SDS011;19920;52.242;20.940;2022-12-07T14:26:44;22.83;;;13.80;;
33593;SDS011;19920;52.242;20.940;2022-12-07T14:29:22;19.77;;;14.38;;
33593;SDS011;19920;52.242;20.940;2022-12-07T14:31:51;21.40;;;13.70;;
33593;SDS011;19920;52.242;20.940;2022-12-07T14:34:19;20.83;;;14.15;;
33593;SDS011;19920;52.242;20.940;2022-12-07T14:36:46;19.08;;;14.18;;
33593;SDS011;19920;52.242;20.940;2022-12-07T14:39:12;20.77;;;14.05;;
33593;SDS011;19920;52.242;20.940;2022-12-07T14:41:37;22.98;;;14.45;;
33593;SDS011;19920;52.242;20.940;2022-12-07T14:44:15;22.00;;;14.25;;
33593;SDS011;19920;52.242;20.940;2022-12-07T14:46:42;21.77;;;14.80;;
33593;SDS011;19920;52.242;20.940;2022-12-07T14:49:08;23.20;;;14.63;;
33593;SDS011;19920;52.242;20.940;2022-12-07T14:51:33;20.25;;;14.05;;
33593;SDS011;19920;52.242;20.940;2022-12-07T14:54:02;24.38;;;14.00;;
33593;SDS011;19920;52.242;20.940;2022-12-07T14:56:30;23.05;;;13.40;;
33593;SDS011;19920;52.242;20.940;2022-12-07T14:58:55;21.88;;;14.60;;
33593;SDS011;19920;52.242;20.940;2022-12-07T15:01:21;22.85;;;14.85;;
33593;SDS011;19920;52.242;20.940;2022-12-07T15:03:47;22.85;;;14.93;;
33593;SDS011;19920;52.242;20.940;2022-12-07T15:06:13;24.85;;;15.85;;
33593;SDS011;19920;52.242;20.940;2022-12-07T15:08:40;24.15;;;15.23;;
33593;SDS011;19920;52.242;20.940;2022-12-07T15:11:06;25.67;;;17.25;;
33593;SDS011;19920;52.242;20.940;2022-12-07T15:13:34;26.85;;;17.77;;
33593;SDS011;19920;52.242;20.940;2022-12-07T15:16:19;22.70;;;15.55;;
33593;SDS011;19920;52.242;20.940;2022-12-07T15:18:46;26.27;;;17.67;;
33593;SDS011;19920;52.242;20.940;2022-12-07T15:21:14;27.02;;;16.52;;
33593;SDS011;19920;52.242;20.940;2022-12-07T15:23:41;23.75;;;14.30;;
33593;SDS011;19920;52.242;20.940;2022-12-07T15:26:07;17.30;;;12.30;;
33593;SDS011;19920;52.242;20.940;2022-12-07T15:28:35;19.27;;;12.73;;
33593;SDS011;19920;52.242;20.940;2022-12-07T15:31:00;19.23;;;13.43;;
33593;SDS011;19920;52.242;20.940;2022-12-07T15:33:26;18.60;;;12.90;;
33593;SDS011;19920;52.242;20.940;2022-12-07T15:35:52;17.77;;;12.35;;
33593;SDS011;19920;52.242;20.940;2022-12-07T15:38:17;18.35;;;11.90;;
33593;SDS011;19920;52.242;20.940;2022-12-07T15:40:46;17.00;;;11.38;;
33593;SDS011;19920;52.242;20.940;2022-12-07T15:43:12;20.35;;;12.68;;
33593;SDS011;19920;52.242;20.940;2022-12-07T15:45:56;18.25;;;11.30;;
33593;SDS011;19920;52.242;20.940;2022-12-07T15:48:22;18.42;;;12.60;;
33593;SDS011;19920;52.242;20.940;2022-12-07T15:50:47;21.33;;;12.15;;
33593;SDS011;19920;52.242;20.940;2022-12-07T15:53:13;19.65;;;12.93;;
33593;SDS011;19920;52.242;20.940;2022-12-07T15:55:39;20.73;;;12.75;;
33593;SDS011;19920;52.242;20.940;2022-12-07T15:58:05;20.92;;;12.65;;
33593;SDS011;19920;52.242;20.940;2022-12-07T16:00:31;19.58;;;12.18;;
33593;SDS011;19920;52.242;20.940;2022-12-07T16:02:57;20.98;;;12.77;;
33593;SDS011;19920;52.242;20.940;2022-12-07T16:05:23;18.90;;;12.45;;
33593;SDS011;19920;52.242;20.940;2022-12-07T16:07:49;23.38;;;13.18;;
33593;SDS011;19920;52.242;20.940;2022-12-07T16:10:14;20.60;;;13.93;;
33593;SDS011;19920;52.242;20.940;2022-12-07T16:12:40;22.00;;;13.90;;
33593;SDS011;19920;52.242;20.940;2022-12-07T16:15:06;20.40;;;13.27;;
33593;SDS011;19920;52.242;20.940;2022-12-07T16:17:32;20.92;;;13.38;;
33593;SDS011;19920;52.242;20.940;2022-12-07T16:19:58;20.55;;;13.43;;
33593;SDS011;19920;52.242;20.940;2022-12-07T16:22:23;21.80;;;14.32;;
33593;SDS011;19920;52.242;20.940;2022-12-07T16:24:49;26.58;;;15.50;;
33593;SDS011;19920;52.242;20.940;2022-12-07T16:27:15;21.63;;;14.38;;
33593;SDS011;19920;52.242;20.940;2022-12-07T16:29:41;24.40;;;14.25;;
33593;SDS011;19920;52.242;20.940;2022-12-07T16:32:06;23.70;;;14.25;;
33593;SDS011;19920;52.242;20.940;2022-12-07T16:34:32;23.17;;;14.82;;
33593;SDS011;19920;52.242;20.940;2022-12-07T16:36:58;24.45;;;15.55;;
33593;SDS011;19920;52.242;20.940;2022-12-07T16:39:23;23.13;;;14.60;;
33593;SDS011;19920;52.242;20.940;2022-12-07T16:41:49;23.48;;;14.60;;
33593;SDS011;19920;52.242;20.940;2022-12-07T16:44:15;20.45;;;14.13;;
33593;SDS011;19920;52.242;20.940;2022-12-07T16:46:41;22.52;;;14.85;;
33593;SDS011;19920;52.242;20.940;2022-12-07T16:49:11;22.55;;;14.65;;
33593;SDS011;19920;52.242;20.940;2022-12-07T16:51:40;23.60;;;14.38;;
33593;SDS011;19920;52.242;20.940;2022-12-07T16:54:11;23.00;;;13.98;;
33593;SDS011;19920;52.242;20.940;2022-12-07T16:56:36;25.55;;;15.30;;
33593;SDS011;19920;52.242;20.940;2022-12-07T16:59:03;27.23;;;14.82;;
33593;SDS011;19920;52.242;20.940;2022-12-07T17:01:28;25.98;;;15.60;;
33593;SDS011;19920;52.242;20.940;2022-12-07T17:03:56;24.40;;;15.85;;